Time;durP1;ratioP1;P1;durP2;ratioP2;P2;SDS_P1;SDS_P2;PMS_P1;PMS_P2;Temp;Humidity;BMP_temperature;BMP_pressure;BME280_temperature;BME280_humidity;BME280_pressure;Samples;Min_cycle;Max_cycle;Signal;HPM_P1;HPM_P2
2023/03/13 16:49:38;;;;;;;;;;;5.10;75.90;;;;;;5095458;27;2234118;-94
2023/03/13 16:52:04;;;;;;;;;;;5.00;77.60;;;;;;5132854;27;19912;-94
2023/03/13 16:54:29;;;;;;;;;;;5.00;79.00;;;;;;5124700;28;20002;-93
2023/03/13 16:56:55;;;;;;;;;;;5.10;80.00;;;;;;5132459;28;19912;-93
2023/03/13 17:02:17;;;;;;;;;;;5.20;81.90;;;;;;5093764;22;19995;-96
2023/03/13 17:04:59;;;;;;;;;;;5.30;81.60;;;;;;5051250;28;19923;-96
2023/03/13 17:07:26;;;;;;;;;;;5.40;81.50;;;;;;5070684;28;19917;-95
2023/03/13 17:09:52;;;;;;;;;;;5.40;81.60;;;;;;5053453;28;19900;-94
2023/03/13 17:14:45;;;;;;;;;;;5.50;82.00;;;;;;5094562;28;19931;-93
2023/03/13 17:17:21;;;;;;;;;;;5.50;81.30;;;;;;5052785;28;19917;-95
2023/03/13 17:19:46;;;;;;;;;;;5.60;81.10;;;;;;5091113;28;20438;-93
2023/03/13 17:22:13;;;;;;;;;;;5.60;81.10;;;;;;5055631;28;19913;-95
2023/03/13 17:24:39;;;;;;;;;;;5.60;81.70;;;;;;5065351;28;20260;-94
2023/03/13 17:27:46;;;;;;;;;;;5.60;80.10;;;;;;5078472;28;19919;-96
2023/03/13 17:30:25;;;;;;;;;;;5.60;79.30;;;;;;5078957;28;19912;-94
2023/03/13 17:35:53;;;;;;;;;;;5.60;79.70;;;;;;5058652;28;19963;-93
2023/03/13 17:38:19;;;;;;;;;;;5.70;78.50;;;;;;5048187;28;20003;-95
2023/03/13 17:40:44;;;;;;;;;;;5.60;78.70;;;;;;5046812;28;19912;-93
2023/03/13 17:43:13;;;;;;;;;;;5.60;77.60;;;;;;5046820;28;19924;-94
2023/03/13 17:45:38;;;;;;;;;;;5.60;78.10;;;;;;5053817;28;19912;-96
2023/03/13 17:48:32;;;;;;;;;;;;;;;;;;;;;
2023/03/13 18:09:06;;;;;;;;;;;5.50;77.90;;;;;;5003031;28;19981;-93
2023/03/13 18:12:13;;;;;;;;;;;5.50;78.20;;;;;;4987730;28;20362;-96
2023/03/13 18:14:54;;;;;;;;;;;5.40;78.00;;;;;;4925446;29;19966;-95
2023/03/13 18:23:37;;;;;;;;;;;5.30;78.40;;;;;;5018884;28;19999;-96
2023/03/13 18:26:18;;;;;;;;;;;5.30;78.60;;;;;;5001363;28;19949;-95
2023/03/13 18:31:19;;;;;;;;;;;5.30;78.40;;;;;;5277930;22;19930;-95
2023/03/13 18:33:45;;;;;;;;;;;5.30;78.40;;;;;;4978781;28;19973;-94
2023/03/13 18:36:19;;;;;;;;;;;5.30;78.80;;;;;;5602728;23;20228;-96
2023/03/13 18:38:45;;;;;;;;;;;5.20;79.10;;;;;;4996317;28;19929;-93
2023/03/13 19:04:32;;;;;;;;;;;4.90;78.10;;;;;;5691463;22;19937;-94
2023/03/13 19:06:58;;;;;;;;;;;4.90;78.30;;;;;;5013423;28;19917;-93
2023/03/13 19:09:25;;;;;;;;;;;4.90;77.90;;;;;;4994913;28;19979;-95
2023/03/13 19:11:51;;;;;;;;;;;5.00;78.30;;;;;;5013139;28;19910;-95
2023/03/13 19:14:23;;;;;;;;;;;4.90;77.90;;;;;;5014967;28;20286;-96
2023/03/13 19:16:54;;;;;;;;;;;4.90;77.40;;;;;;5000243;28;19917;-95
2023/03/13 19:19:25;;;;;;;;;;;4.90;77.30;;;;;;4991743;28;20274;-95
2023/03/13 19:21:51;;;;;;;;;;;4.90;77.40;;;;;;5029363;23;20439;-92
2023/03/13 19:24:17;;;;;;;;;;;4.90;77.10;;;;;;4947908;28;20066;-95
2023/03/13 19:27:03;;;;;;;;;;;4.90;77.00;;;;;;4958975;29;19914;-95
2023/03/13 19:29:28;;;;;;;;;;;4.90;76.80;;;;;;4972417;28;19917;-96
2023/03/13 19:32:03;;;;;;;;;;;4.90;76.00;;;;;;4966352;28;19914;-96
2023/03/13 19:35:17;;;;;;;;;;;;;;;;;;;;;
2023/03/13 19:40:42;;;;;;;;;;;5.00;75.40;;;;;;4894803;29;19919;-96
2023/03/13 19:43:08;;;;;;;;;;;5.00;74.90;;;;;;4926655;29;19915;-95
2023/03/13 19:45:33;;;;;;;;;;;5.00;74.80;;;;;;4903562;29;19922;-94
2023/03/13 19:47:59;;;;;;;;;;;5.00;74.90;;;;;;4903985;29;19912;-94
